sensor_id;sensor_type;location;lat;lon;timestamp;P1;durP1;ratioP1;P2;durP2;ratioP2
3095;SDS011;1558;42.700;23.360;2023-06-24T00:01:43;13.57;;;12.38;;
3095;SDS011;1558;42.700;23.360;2023-06-24T00:04:11;15.07;;;12.52;;
3095;SDS011;1558;42.700;23.360;2023-06-24T00:06:43;13.95;;;12.75;;
3095;SDS011;1558;42.700;23.360;2023-06-24T00:09:12;13.98;;;12.68;;
3095;SDS011;1558;42.700;23.360;2023-06-24T00:11:40;13.70;;;12.40;;
3095;SDS011;1558;42.700;23.360;2023-06-24T00:14:08;13.60;;;12.40;;
3095;SDS011;1558;42.700;23.360;2023-06-24T00:16:37;14.95;;;13.48;;
3095;SDS011;1558;42.700;23.360;2023-06-24T00:19:05;13.85;;;12.48;;
3095;SDS011;1558;42.700;23.360;2023-06-24T00:21:35;13.93;;;12.73;;
3095;SDS011;1558;42.700;23.360;2023-06-24T00:24:04;13.65;;;12.55;;
3095;SDS011;1558;42.700;23.360;2023-06-24T00:26:33;14.00;;;12.80;;
3095;SDS011;1558;42.700;23.360;2023-06-24T00:29:01;14.13;;;12.90;;
3095;SDS011;1558;42.700;23.360;2023-06-24T00:31:29;13.38;;;12.18;;
3095;SDS011;1558;42.700;23.360;2023-06-24T00:33:58;14.80;;;12.55;;
3095;SDS011;1558;42.700;23.360;2023-06-24T00:36:26;14.02;;;12.85;;
3095;SDS011;1558;42.700;23.360;2023-06-24T00:38:55;13.95;;;12.70;;
3095;SDS011;1558;42.700;23.360;2023-06-24T00:41:23;14.40;;;12.90;;
3095;SDS011;1558;42.700;23.360;2023-06-24T00:43:53;13.48;;;12.38;;
3095;SDS011;1558;42.700;23.360;2023-06-24T00:46:23;12.95;;;11.75;;
3095;SDS011;1558;42.700;23.360;2023-06-24T00:48:54;13.40;;;12.15;;
3095;SDS011;1558;42.700;23.360;2023-06-24T00:51:23;12.05;;;11.05;;
3095;SDS011;1558;42.700;23.360;2023-06-24T00:53:52;13.20;;;11.93;;
3095;SDS011;1558;42.700;23.360;2023-06-24T00:56:21;13.90;;;12.65;;
3095;SDS011;1558;42.700;23.360;2023-06-24T00:58:54;13.13;;;12.02;;
3095;SDS011;1558;42.700;23.360;2023-06-24T01:01:25;13.23;;;11.90;;
3095;SDS011;1558;42.700;23.360;2023-06-24T01:03:55;13.15;;;11.95;;
3095;SDS011;1558;42.700;23.360;2023-06-24T01:06:29;13.55;;;12.25;;
3095;SDS011;1558;42.700;23.360;2023-06-24T01:08:59;12.48;;;11.38;;
3095;SDS011;1558;42.700;23.360;2023-06-24T01:11:29;13.02;;;11.73;;
3095;SDS011;1558;42.700;23.360;2023-06-24T01:13:59;12.95;;;11.85;;
3095;SDS011;1558;42.700;23.360;2023-06-24T01:16:30;12.82;;;11.73;;
3095;SDS011;1558;42.700;23.360;2023-06-24T01:19:08;12.32;;;11.23;;
3095;SDS011;1558;42.700;23.360;2023-06-24T01:22:06;12.63;;;11.52;;
3095;SDS011;1558;42.700;23.360;2023-06-24T01:24:51;12.80;;;11.70;;
3095;SDS011;1558;42.700;23.360;2023-06-24T01:27:42;13.70;;;12.40;;
3095;SDS011;1558;42.700;23.360;2023-06-24T01:33:29;12.63;;;11.52;;
3095;SDS011;1558;42.700;23.360;2023-06-24T01:36:03;13.23;;;11.90;;
3095;SDS011;1558;42.700;23.360;2023-06-24T01:38:36;13.57;;;12.27;;
3095;SDS011;1558;42.700;23.360;2023-06-24T01:41:08;13.68;;;12.45;;
3095;SDS011;1558;42.700;23.360;2023-06-24T01:43:40;12.82;;;11.75;;
3095;SDS011;1558;42.700;23.360;2023-06-24T01:46:10;13.82;;;12.43;;
3095;SDS011;1558;42.700;23.360;2023-06-24T01:48:43;14.50;;;13.20;;
3095;SDS011;1558;42.700;23.360;2023-06-24T01:51:15;14.15;;;12.93;;
3095;SDS011;1558;42.700;23.360;2023-06-24T01:53:48;13.80;;;12.43;;
3095;SDS011;1558;42.700;23.360;2023-06-24T01:56:21;14.38;;;13.02;;
3095;SDS011;1558;42.700;23.360;2023-06-24T01:58:51;13.30;;;12.02;;
3095;SDS011;1558;42.700;23.360;2023-06-24T02:01:21;13.18;;;11.98;;
3095;SDS011;1558;42.700;23.360;2023-06-24T02:03:53;13.52;;;12.23;;
3095;SDS011;1558;42.700;23.360;2023-06-24T02:06:23;14.02;;;12.77;;
3095;SDS011;1558;42.700;23.360;2023-06-24T02:08:54;14.60;;;13.30;;
3095;SDS011;1558;42.700;23.360;2023-06-24T02:11:25;14.25;;;13.05;;
3095;SDS011;1558;42.700;23.360;2023-06-24T02:13:55;13.80;;;12.57;;
3095;SDS011;1558;42.700;23.360;2023-06-24T02:16:26;14.38;;;13.18;;
3095;SDS011;1558;42.700;23.360;2023-06-24T02:18:57;14.05;;;12.68;;
3095;SDS011;1558;42.700;23.360;2023-06-24T02:21:28;13.68;;;12.32;;
3095;SDS011;1558;42.700;23.360;2023-06-24T02:23:57;14.98;;;13.43;;
3095;SDS011;1558;42.700;23.360;2023-06-24T02:26:26;14.82;;;13.43;;
3095;SDS011;1558;42.700;23.360;2023-06-24T02:28:54;13.95;;;12.57;;
3095;SDS011;1558;42.700;23.360;2023-06-24T02:31:23;16.98;;;15.38;;
3095;SDS011;1558;42.700;23.360;2023-06-24T02:33:52;16.70;;;15.13;;
3095;SDS011;1558;42.700;23.360;2023-06-24T02:36:21;14.70;;;13.10;;
3095;SDS011;1558;42.700;23.360;2023-06-24T02:38:50;14.98;;;13.48;;
3095;SDS011;1558;42.700;23.360;2023-06-24T02:41:18;15.65;;;14.05;;
3095;SDS011;1558;42.700;23.360;2023-06-24T02:43:46;14.98;;;13.45;;
3095;SDS011;1558;42.700;23.360;2023-06-24T02:46:14;15.02;;;13.63;;
3095;SDS011;1558;42.700;23.360;2023-06-24T02:48:43;16.52;;;15.02;;
3095;SDS011;1558;42.700;23.360;2023-06-24T02:51:13;16.33;;;14.88;;
3095;SDS011;1558;42.700;23.360;2023-06-24T02:53:43;17.80;;;16.15;;
3095;SDS011;1558;42.700;23.360;2023-06-24T02:56:13;17.98;;;16.10;;
3095;SDS011;1558;42.700;23.360;2023-06-24T02:58:47;15.93;;;14.45;;
3095;SDS011;1558;42.700;23.360;2023-06-24T03:01:15;18.80;;;16.90;;
3095;SDS011;1558;42.700;23.360;2023-06-24T03:03:45;17.70;;;15.93;;
3095;SDS011;1558;42.700;23.360;2023-06-24T03:06:16;17.20;;;15.43;;
3095;SDS011;1558;42.700;23.360;2023-06-24T03:08:46;18.02;;;16.33;;
3095;SDS011;1558;42.700;23.360;2023-06-24T03:11:15;17.42;;;15.82;;
3095;SDS011;1558;42.700;23.360;2023-06-24T03:13:44;20.27;;;18.15;;
3095;SDS011;1558;42.700;23.360;2023-06-24T03:16:12;22.25;;;19.85;;
3095;SDS011;1558;42.700;23.360;2023-06-24T03:18:40;20.45;;;18.20;;
3095;SDS011;1558;42.700;23.360;2023-06-24T03:21:09;20.20;;;18.10;;
3095;SDS011;1558;42.700;23.360;2023-06-24T03:23:38;20.17;;;18.20;;
3095;SDS011;1558;42.700;23.360;2023-06-24T03:26:08;19.08;;;17.30;;
3095;SDS011;1558;42.700;23.360;2023-06-24T03:28:36;19.80;;;18.02;;
3095;SDS011;1558;42.700;23.360;2023-06-24T03:31:04;19.50;;;17.70;;
3095;SDS011;1558;42.700;23.360;2023-06-24T03:33:32;20.83;;;18.75;;
3095;SDS011;1558;42.700;23.360;2023-06-24T03:36:01;19.75;;;17.77;;
3095;SDS011;1558;42.700;23.360;2023-06-24T03:38:29;18.85;;;17.00;;
3095;SDS011;1558;42.700;23.360;2023-06-24T03:40:57;20.20;;;18.08;;
3095;SDS011;1558;42.700;23.360;2023-06-24T03:43:27;18.63;;;16.73;;
3095;SDS011;1558;42.700;23.360;2023-06-24T03:45:55;18.98;;;17.13;;
3095;SDS011;1558;42.700;23.360;2023-06-24T03:48:23;19.77;;;17.77;;
3095;SDS011;1558;42.700;23.360;2023-06-24T03:50:51;21.05;;;18.98;;
3095;SDS011;1558;42.700;23.360;2023-06-24T03:53:19;19.75;;;17.75;;
3095;SDS011;1558;42.700;23.360;2023-06-24T03:55:47;20.10;;;17.75;;
3095;SDS011;1558;42.700;23.360;2023-06-24T03:58:15;19.73;;;17.92;;
3095;SDS011;1558;42.700;23.360;2023-06-24T04:00:44;19.23;;;17.38;;
3095;SDS011;1558;42.700;23.360;2023-06-24T04:03:14;19.00;;;17.13;;
3095;SDS011;1558;42.700;23.360;2023-06-24T04:05:42;20.10;;;18.00;;
3095;SDS011;1558;42.700;23.360;2023-06-24T04:08:10;19.67;;;17.65;;
3095;SDS011;1558;42.700;23.360;2023-06-24T04:10:38;19.40;;;17.65;;
3095;SDS011;1558;42.700;23.360;2023-06-24T04:13:09;17.90;;;16.20;;
3095;SDS011;1558;42.700;23.360;2023-06-24T04:15:37;19.50;;;17.80;;
3095;SDS011;1558;42.700;23.360;2023-06-24T04:18:07;18.80;;;17.02;;
3095;SDS011;1558;42.700;23.360;2023-06-24T04:20:35;18.35;;;16.55;;
3095;SDS011;1558;42.700;23.360;2023-06-24T04:23:04;18.08;;;16.45;;
3095;SDS011;1558;42.700;23.360;2023-06-24T04:25:35;18.17;;;16.42;;
3095;SDS011;1558;42.700;23.360;2023-06-24T04:28:04;20.23;;;18.15;;
3095;SDS011;1558;42.700;23.360;2023-06-24T04:30:32;19.02;;;17.20;;
3095;SDS011;1558;42.700;23.360;2023-06-24T04:33:01;20.08;;;18.08;;
3095;SDS011;1558;42.700;23.360;2023-06-24T04:35:31;21.52;;;19.40;;
3095;SDS011;1558;42.700;23.360;2023-06-24T04:38:00;19.70;;;17.77;;
3095;SDS011;1558;42.700;23.360;2023-06-24T04:40:28;18.30;;;16.60;;
3095;SDS011;1558;42.700;23.360;2023-06-24T04:42:57;20.25;;;18.17;;
3095;SDS011;1558;42.700;23.360;2023-06-24T04:45:25;19.23;;;17.55;;
3095;SDS011;1558;42.700;23.360;2023-06-24T04:47:53;20.83;;;18.90;;
3095;SDS011;1558;42.700;23.360;2023-06-24T04:50:21;21.85;;;19.85;;
3095;SDS011;1558;42.700;23.360;2023-06-24T04:52:54;21.48;;;19.48;;
3095;SDS011;1558;42.700;23.360;2023-06-24T04:55:23;23.52;;;21.23;;
3095;SDS011;1558;42.700;23.360;2023-06-24T04:57:51;21.40;;;19.30;;
3095;SDS011;1558;42.700;23.360;2023-06-24T05:00:19;20.95;;;19.05;;
3095;SDS011;1558;42.700;23.360;2023-06-24T05:02:49;20.40;;;18.35;;
3095;SDS011;1558;42.700;23.360;2023-06-24T05:05:18;22.33;;;20.27;;
3095;SDS011;1558;42.700;23.360;2023-06-24T05:07:47;22.58;;;20.27;;
3095;SDS011;1558;42.700;23.360;2023-06-24T05:10:17;22.13;;;19.92;;
3095;SDS011;1558;42.700;23.360;2023-06-24T05:12:45;21.58;;;19.38;;
3095;SDS011;1558;42.700;23.360;2023-06-24T05:15:13;19.25;;;17.55;;
3095;SDS011;1558;42.700;23.360;2023-06-24T05:17:44;19.42;;;17.38;;
3095;SDS011;1558;42.700;23.360;2023-06-24T05:20:12;19.70;;;17.45;;
3095;SDS011;1558;42.700;23.360;2023-06-24T05:22:40;18.05;;;16.25;;
3095;SDS011;1558;42.700;23.360;2023-06-24T05:25:08;17.92;;;16.23;;
3095;SDS011;1558;42.700;23.360;2023-06-24T05:27:38;17.00;;;15.50;;
3095;SDS011;1558;42.700;23.360;2023-06-24T05:30:07;16.70;;;15.10;;
3095;SDS011;1558;42.700;23.360;2023-06-24T05:32:41;16.75;;;15.10;;
3095;SDS011;1558;42.700;23.360;2023-06-24T05:35:09;17.13;;;15.45;;
3095;SDS011;1558;42.700;23.360;2023-06-24T05:37:37;17.52;;;15.93;;
3095;SDS011;1558;42.700;23.360;2023-06-24T05:40:10;18.00;;;16.17;;
3095;SDS011;1558;42.700;23.360;2023-06-24T05:42:40;20.98;;;19.20;;
3095;SDS011;1558;42.700;23.360;2023-06-24T05:45:09;17.48;;;15.88;;
3095;SDS011;1558;42.700;23.360;2023-06-24T05:47:37;17.80;;;16.02;;
3095;SDS011;1558;42.700;23.360;2023-06-24T05:50:06;16.33;;;14.82;;
3095;SDS011;1558;42.700;23.360;2023-06-24T05:52:35;18.15;;;16.65;;
3095;SDS011;1558;42.700;23.360;2023-06-24T05:55:03;16.55;;;15.13;;
3095;SDS011;1558;42.700;23.360;2023-06-24T05:57:32;17.05;;;15.50;;
3095;SDS011;1558;42.700;23.360;2023-06-24T06:00:02;16.65;;;15.18;;
3095;SDS011;1558;42.700;23.360;2023-06-24T06:02:31;16.50;;;14.98;;
3095;SDS011;1558;42.700;23.360;2023-06-24T06:05:02;15.43;;;13.95;;
3095;SDS011;1558;42.700;23.360;2023-06-24T06:07:31;15.55;;;14.07;;
3095;SDS011;1558;42.700;23.360;2023-06-24T06:09:59;15.00;;;13.80;;
3095;SDS011;1558;42.700;23.360;2023-06-24T06:12:30;15.43;;;14.05;;
3095;SDS011;1558;42.700;23.360;2023-06-24T06:14:58;15.63;;;14.20;;
3095;SDS011;1558;42.700;23.360;2023-06-24T06:17:29;15.55;;;14.35;;
3095;SDS011;1558;42.700;23.360;2023-06-24T06:19:57;14.70;;;13.50;;
3095;SDS011;1558;42.700;23.360;2023-06-24T06:22:25;14.88;;;13.70;;
3095;SDS011;1558;42.700;23.360;2023-06-24T06:24:53;15.32;;;13.68;;
3095;SDS011;1558;42.700;23.360;2023-06-24T06:27:21;15.38;;;13.85;;
3095;SDS011;1558;42.700;23.360;2023-06-24T06:29:50;14.27;;;13.18;;
3095;SDS011;1558;42.700;23.360;2023-06-24T06:32:19;15.32;;;14.02;;
3095;SDS011;1558;42.700;23.360;2023-06-24T06:34:49;15.73;;;14.52;;
3095;SDS011;1558;42.700;23.360;2023-06-24T06:37:17;15.32;;;14.23;;
3095;SDS011;1558;42.700;23.360;2023-06-24T06:39:45;15.20;;;14.00;;
3095;SDS011;1558;42.700;23.360;2023-06-24T06:42:13;13.80;;;12.50;;
3095;SDS011;1558;42.700;23.360;2023-06-24T06:44:42;14.20;;;13.20;;
3095;SDS011;1558;42.700;23.360;2023-06-24T06:47:10;14.60;;;13.40;;
3095;SDS011;1558;42.700;23.360;2023-06-24T06:49:38;15.35;;;14.18;;
3095;SDS011;1558;42.700;23.360;2023-06-24T06:52:09;14.93;;;13.82;;
3095;SDS011;1558;42.700;23.360;2023-06-24T06:54:38;15.18;;;14.07;;
3095;SDS011;1558;42.700;23.360;2023-06-24T06:57:06;14.57;;;13.50;;
3095;SDS011;1558;42.700;23.360;2023-06-24T06:59:34;14.98;;;13.77;;
3095;SDS011;1558;42.700;23.360;2023-06-24T07:02:02;15.35;;;14.15;;
3095;SDS011;1558;42.700;23.360;2023-06-24T07:04:31;14.73;;;13.52;;
3095;SDS011;1558;42.700;23.360;2023-06-24T07:06:59;14.45;;;13.35;;
3095;SDS011;1558;42.700;23.360;2023-06-24T07:09:29;15.18;;;13.90;;
3095;SDS011;1558;42.700;23.360;2023-06-24T07:11:57;14.13;;;13.13;;
3095;SDS011;1558;42.700;23.360;2023-06-24T07:14:26;16.00;;;14.07;;
3095;SDS011;1558;42.700;23.360;2023-06-24T07:16:54;15.82;;;14.40;;
3095;SDS011;1558;42.700;23.360;2023-06-24T07:19:22;15.10;;;13.68;;
3095;SDS011;1558;42.700;23.360;2023-06-24T07:21:51;13.55;;;12.52;;
3095;SDS011;1558;42.700;23.360;2023-06-24T07:24:19;14.30;;;13.30;;
3095;SDS011;1558;42.700;23.360;2023-06-24T07:26:48;14.50;;;13.43;;
3095;SDS011;1558;42.700;23.360;2023-06-24T07:29:17;13.73;;;12.57;;
3095;SDS011;1558;42.700;23.360;2023-06-24T07:31:45;12.80;;;11.80;;
3095;SDS011;1558;42.700;23.360;2023-06-24T07:34:13;14.57;;;13.35;;
3095;SDS011;1558;42.700;23.360;2023-06-24T07:36:41;13.68;;;12.52;;
3095;SDS011;1558;42.700;23.360;2023-06-24T07:39:09;13.65;;;12.38;;
3095;SDS011;1558;42.700;23.360;2023-06-24T07:41:37;14.07;;;12.98;;
3095;SDS011;1558;42.700;23.360;2023-06-24T07:44:08;13.23;;;12.23;;
3095;SDS011;1558;42.700;23.360;2023-06-24T07:46:36;14.18;;;13.18;;
3095;SDS011;1558;42.700;23.360;2023-06-24T07:49:04;14.45;;;13.13;;
3095;SDS011;1558;42.700;23.360;2023-06-24T07:51:33;13.85;;;12.85;;
3095;SDS011;1558;42.700;23.360;2023-06-24T07:54:01;14.65;;;13.15;;
3095;SDS011;1558;42.700;23.360;2023-06-24T07:56:29;13.70;;;12.65;;
3095;SDS011;1558;42.700;23.360;2023-06-24T07:58:58;13.73;;;12.63;;
3095;SDS011;1558;42.700;23.360;2023-06-24T08:01:29;15.18;;;14.05;;
3095;SDS011;1558;42.700;23.360;2023-06-24T08:03:57;13.90;;;12.85;;
3095;SDS011;1558;42.700;23.360;2023-06-24T08:06:25;14.70;;;13.30;;
3095;SDS011;1558;42.700;23.360;2023-06-24T08:08:53;13.63;;;12.63;;
3095;SDS011;1558;42.700;23.360;2023-06-24T08:11:22;14.13;;;13.07;;
3095;SDS011;1558;42.700;23.360;2023-06-24T08:13:50;14.45;;;13.32;;
3095;SDS011;1558;42.700;23.360;2023-06-24T08:16:19;14.13;;;12.98;;
3095;SDS011;1558;42.700;23.360;2023-06-24T08:18:48;14.73;;;13.52;;
3095;SDS011;1558;42.700;23.360;2023-06-24T08:21:16;14.27;;;13.27;;
3095;SDS011;1558;42.700;23.360;2023-06-24T08:23:45;13.88;;;12.77;;
3095;SDS011;1558;42.700;23.360;2023-06-24T08:26:13;13.55;;;12.65;;
3095;SDS011;1558;42.700;23.360;2023-06-24T08:28:43;14.10;;;12.98;;
3095;SDS011;1558;42.700;23.360;2023-06-24T08:31:12;14.85;;;13.65;;
3095;SDS011;1558;42.700;23.360;2023-06-24T08:33:43;14.38;;;13.32;;
3095;SDS011;1558;42.700;23.360;2023-06-24T08:36:13;13.90;;;12.90;;
3095;SDS011;1558;42.700;23.360;2023-06-24T08:38:41;13.52;;;12.63;;
3095;SDS011;1558;42.700;23.360;2023-06-24T08:41:09;12.85;;;11.88;;
3095;SDS011;1558;42.700;23.360;2023-06-24T08:43:37;14.30;;;13.30;;
3095;SDS011;1558;42.700;23.360;2023-06-24T08:46:07;14.35;;;13.30;;
3095;SDS011;1558;42.700;23.360;2023-06-24T08:48:36;13.73;;;12.73;;
3095;SDS011;1558;42.700;23.360;2023-06-24T08:51:08;14.95;;;13.82;;
3095;SDS011;1558;42.700;23.360;2023-06-24T08:53:41;13.82;;;12.70;;
3095;SDS011;1558;42.700;23.360;2023-06-24T08:56:10;14.50;;;13.40;;
3095;SDS011;1558;42.700;23.360;2023-06-24T08:58:39;13.93;;;12.93;;
3095;SDS011;1558;42.700;23.360;2023-06-24T09:01:07;13.70;;;12.80;;
3095;SDS011;1558;42.700;23.360;2023-06-24T09:03:36;13.40;;;12.40;;
3095;SDS011;1558;42.700;23.360;2023-06-24T09:06:04;13.60;;;12.57;;
3095;SDS011;1558;42.700;23.360;2023-06-24T09:08:32;14.50;;;13.50;;
3095;SDS011;1558;42.700;23.360;2023-06-24T09:11:04;14.55;;;13.50;;
3095;SDS011;1558;42.700;23.360;2023-06-24T09:13:33;14.85;;;13.48;;
3095;SDS011;1558;42.700;23.360;2023-06-24T09:16:12;15.77;;;14.57;;
3095;SDS011;1558;42.700;23.360;2023-06-24T09:18:47;16.77;;;15.23;;
3095;SDS011;1558;42.700;23.360;2023-06-24T09:21:21;15.02;;;13.75;;
3095;SDS011;1558;42.700;23.360;2023-06-24T09:23:51;14.98;;;13.77;;
3095;SDS011;1558;42.700;23.360;2023-06-24T09:26:24;14.85;;;13.75;;
3095;SDS011;1558;42.700;23.360;2023-06-24T09:28:53;14.55;;;13.35;;
3095;SDS011;1558;42.700;23.360;2023-06-24T09:31:22;13.80;;;12.80;;
3095;SDS011;1558;42.700;23.360;2023-06-24T09:33:51;13.45;;;12.35;;
3095;SDS011;1558;42.700;23.360;2023-06-24T09:36:19;14.93;;;13.63;;
3095;SDS011;1558;42.700;23.360;2023-06-24T09:38:47;14.52;;;13.18;;
3095;SDS011;1558;42.700;23.360;2023-06-24T09:41:16;14.32;;;13.23;;
3095;SDS011;1558;42.700;23.360;2023-06-24T09:43:46;14.50;;;13.48;;
3095;SDS011;1558;42.700;23.360;2023-06-24T09:46:14;15.55;;;14.40;;
3095;SDS011;1558;42.700;23.360;2023-06-24T09:48:44;16.27;;;14.82;;
3095;SDS011;1558;42.700;23.360;2023-06-24T09:51:13;14.65;;;13.55;;
3095;SDS011;1558;42.700;23.360;2023-06-24T09:53:41;14.93;;;13.82;;
3095;SDS011;1558;42.700;23.360;2023-06-24T09:56:11;15.00;;;13.73;;
3095;SDS011;1558;42.700;23.360;2023-06-24T09:58:41;15.30;;;14.02;;
3095;SDS011;1558;42.700;23.360;2023-06-24T10:01:13;14.88;;;13.70;;
3095;SDS011;1558;42.700;23.360;2023-06-24T10:03:43;13.57;;;12.68;;
3095;SDS011;1558;42.700;23.360;2023-06-24T10:06:11;14.68;;;13.68;;
3095;SDS011;1558;42.700;23.360;2023-06-24T10:08:39;13.45;;;12.38;;
3095;SDS011;1558;42.700;23.360;2023-06-24T10:11:08;14.38;;;13.18;;
3095;SDS011;1558;42.700;23.360;2023-06-24T10:13:36;15.40;;;14.05;;
3095;SDS011;1558;42.700;23.360;2023-06-24T10:16:04;14.15;;;13.25;;
3095;SDS011;1558;42.700;23.360;2023-06-24T10:18:36;14.68;;;13.60;;
3095;SDS011;1558;42.700;23.360;2023-06-24T10:21:05;14.55;;;13.55;;
3095;SDS011;1558;42.700;23.360;2023-06-24T10:23:38;14.25;;;13.15;;
3095;SDS011;1558;42.700;23.360;2023-06-24T10:26:08;13.95;;;12.77;;
3095;SDS011;1558;42.700;23.360;2023-06-24T10:31:51;13.48;;;12.50;;
3095;SDS011;1558;42.700;23.360;2023-06-24T10:34:34;12.98;;;11.77;;
3095;SDS011;1558;42.700;23.360;2023-06-24T10:37:11;13.23;;;12.23;;
3095;SDS011;1558;42.700;23.360;2023-06-24T10:39:47;14.23;;;13.00;;
3095;SDS011;1558;42.700;23.360;2023-06-24T10:42:25;12.90;;;11.80;;
3095;SDS011;1558;42.700;23.360;2023-06-24T10:44:57;11.93;;;11.00;;
3095;SDS011;1558;42.700;23.360;2023-06-24T10:47:28;12.90;;;11.75;;
3095;SDS011;1558;42.700;23.360;2023-06-24T10:49:59;12.65;;;11.43;;
3095;SDS011;1558;42.700;23.360;2023-06-24T10:52:27;11.95;;;11.05;;
3095;SDS011;1558;42.700;23.360;2023-06-24T10:54:56;12.43;;;11.20;;
3095;SDS011;1558;42.700;23.360;2023-06-24T10:57:25;12.80;;;11.98;;
3095;SDS011;1558;42.700;23.360;2023-06-24T10:59:54;12.70;;;11.60;;
3095;SDS011;1558;42.700;23.360;2023-06-24T11:02:24;12.95;;;11.85;;
3095;SDS011;1558;42.700;23.360;2023-06-24T11:04:53;12.07;;;11.00;;
3095;SDS011;1558;42.700;23.360;2023-06-24T11:07:24;12.48;;;11.48;;
3095;SDS011;1558;42.700;23.360;2023-06-24T11:09:54;10.02;;;9.20;;
3095;SDS011;1558;42.700;23.360;2023-06-24T11:12:24;11.30;;;10.20;;
3095;SDS011;1558;42.700;23.360;2023-06-24T11:14:55;10.00;;;9.30;;
3095;SDS011;1558;42.700;23.360;2023-06-24T11:17:24;9.93;;;9.02;;
3095;SDS011;1558;42.700;23.360;2023-06-24T11:19:52;9.98;;;9.15;;
3095;SDS011;1558;42.700;23.360;2023-06-24T11:22:21;9.88;;;9.00;;
3095;SDS011;1558;42.700;23.360;2023-06-24T11:24:51;10.48;;;9.60;;
3095;SDS011;1558;42.700;23.360;2023-06-24T11:27:23;9.93;;;9.23;;
3095;SDS011;1558;42.700;23.360;2023-06-24T11:29:53;9.45;;;8.55;;
3095;SDS011;1558;42.700;23.360;2023-06-24T11:32:24;8.80;;;8.20;;
3095;SDS011;1558;42.700;23.360;2023-06-24T11:34:52;9.27;;;8.48;;
3095;SDS011;1558;42.700;23.360;2023-06-24T11:37:30;8.50;;;7.90;;
3095;SDS011;1558;42.700;23.360;2023-06-24T11:40:03;9.23;;;8.43;;
3095;SDS011;1558;42.700;23.360;2023-06-24T11:42:32;8.10;;;7.60;;
3095;SDS011;1558;42.700;23.360;2023-06-24T11:45:04;8.68;;;7.82;;
3095;SDS011;1558;42.700;23.360;2023-06-24T11:47:33;8.65;;;7.93;;
3095;SDS011;1558;42.700;23.360;2023-06-24T11:50:04;9.35;;;8.65;;
3095;SDS011;1558;42.700;23.360;2023-06-24T11:52:40;9.57;;;8.77;;
3095;SDS011;1558;42.700;23.360;2023-06-24T11:55:17;10.10;;;9.20;;
3095;SDS011;1558;42.700;23.360;2023-06-24T11:57:49;9.45;;;8.82;;
3095;SDS011;1558;42.700;23.360;2023-06-24T12:00:21;10.45;;;9.55;;
3095;SDS011;1558;42.700;23.360;2023-06-24T12:02:53;10.77;;;9.73;;
3095;SDS011;1558;42.700;23.360;2023-06-24T12:05:23;10.00;;;9.20;;
3095;SDS011;1558;42.700;23.360;2023-06-24T12:07:55;10.85;;;10.05;;
3095;SDS011;1558;42.700;23.360;2023-06-24T12:10:30;11.57;;;10.63;;
3095;SDS011;1558;42.700;23.360;2023-06-24T12:13:00;10.35;;;9.38;;
3095;SDS011;1558;42.700;23.360;2023-06-24T12:15:29;10.73;;;9.73;;
3095;SDS011;1558;42.700;23.360;2023-06-24T12:17:57;10.25;;;9.55;;
3095;SDS011;1558;42.700;23.360;2023-06-24T12:20:26;9.95;;;9.25;;
3095;SDS011;1558;42.700;23.360;2023-06-24T12:22:58;10.40;;;9.60;;
3095;SDS011;1558;42.700;23.360;2023-06-24T12:25:26;10.55;;;9.65;;
3095;SDS011;1558;42.700;23.360;2023-06-24T12:27:56;10.85;;;10.00;;
3095;SDS011;1558;42.700;23.360;2023-06-24T12:30:26;10.43;;;9.40;;
3095;SDS011;1558;42.700;23.360;2023-06-24T12:32:54;10.63;;;9.85;;
3095;SDS011;1558;42.700;23.360;2023-06-24T12:35:23;10.68;;;9.88;;
3095;SDS011;1558;42.700;23.360;2023-06-24T12:37:52;10.13;;;9.40;;
3095;SDS011;1558;42.700;23.360;2023-06-24T12:40:20;10.45;;;9.57;;
3095;SDS011;1558;42.700;23.360;2023-06-24T12:42:49;9.95;;;9.15;;
3095;SDS011;1558;42.700;23.360;2023-06-24T12:45:18;10.57;;;9.75;;
3095;SDS011;1558;42.700;23.360;2023-06-24T12:47:47;10.75;;;9.85;;
3095;SDS011;1558;42.700;23.360;2023-06-24T12:50:17;9.98;;;9.18;;
3095;SDS011;1558;42.700;23.360;2023-06-24T12:52:45;10.10;;;9.18;;
3095;SDS011;1558;42.700;23.360;2023-06-24T12:55:14;13.95;;;9.70;;
3095;SDS011;1558;42.700;23.360;2023-06-24T12:57:42;10.13;;;9.32;;
3095;SDS011;1558;42.700;23.360;2023-06-24T13:00:11;10.52;;;9.45;;
3095;SDS011;1558;42.700;23.360;2023-06-24T13:02:41;10.07;;;9.32;;
3095;SDS011;1558;42.700;23.360;2023-06-24T13:05:10;9.38;;;8.57;;
3095;SDS011;1558;42.700;23.360;2023-06-24T13:07:38;11.43;;;10.25;;
3095;SDS011;1558;42.700;23.360;2023-06-24T13:10:06;11.07;;;10.07;;
3095;SDS011;1558;42.700;23.360;2023-06-24T13:12:35;10.55;;;9.75;;
3095;SDS011;1558;42.700;23.360;2023-06-24T13:15:03;10.65;;;9.68;;
3095;SDS011;1558;42.700;23.360;2023-06-24T13:17:33;11.25;;;10.35;;
3095;SDS011;1558;42.700;23.360;2023-06-24T13:20:03;11.55;;;10.45;;
3095;SDS011;1558;42.700;23.360;2023-06-24T13:22:31;10.82;;;9.75;;
3095;SDS011;1558;42.700;23.360;2023-06-24T13:24:59;11.45;;;10.35;;
3095;SDS011;1558;42.700;23.360;2023-06-24T13:27:27;11.45;;;10.50;;
3095;SDS011;1558;42.700;23.360;2023-06-24T13:29:56;12.85;;;11.02;;
3095;SDS011;1558;42.700;23.360;2023-06-24T13:32:24;18.65;;;10.75;;
3095;SDS011;1558;42.700;23.360;2023-06-24T13:34:54;23.70;;;10.10;;
3095;SDS011;1558;42.700;23.360;2023-06-24T13:37:23;20.42;;;8.70;;
3095;SDS011;1558;42.700;23.360;2023-06-24T13:39:51;21.30;;;8.25;;
3095;SDS011;1558;42.700;23.360;2023-06-24T13:42:19;17.73;;;9.30;;
3095;SDS011;1558;42.700;23.360;2023-06-24T13:44:48;26.70;;;10.18;;
3095;SDS011;1558;42.700;23.360;2023-06-24T13:47:16;23.20;;;8.57;;
3095;SDS011;1558;42.700;23.360;2023-06-24T13:49:44;13.15;;;7.35;;
3095;SDS011;1558;42.700;23.360;2023-06-24T13:52:13;8.32;;;6.28;;
3095;SDS011;1558;42.700;23.360;2023-06-24T13:54:42;8.50;;;7.05;;
3095;SDS011;1558;42.700;23.360;2023-06-24T13:57:12;7.72;;;7.03;;
3095;SDS011;1558;42.700;23.360;2023-06-24T13:59:40;7.35;;;6.65;;
3095;SDS011;1558;42.700;23.360;2023-06-24T14:02:08;9.13;;;7.70;;
3095;SDS011;1558;42.700;23.360;2023-06-24T14:04:38;15.77;;;7.45;;
3095;SDS011;1558;42.700;23.360;2023-06-24T14:07:06;15.40;;;8.10;;
3095;SDS011;1558;42.700;23.360;2023-06-24T14:09:34;10.38;;;7.43;;
3095;SDS011;1558;42.700;23.360;2023-06-24T14:12:08;13.23;;;8.48;;
3095;SDS011;1558;42.700;23.360;2023-06-24T14:14:36;13.98;;;9.02;;
3095;SDS011;1558;42.700;23.360;2023-06-24T14:17:05;13.57;;;7.78;;
3095;SDS011;1558;42.700;23.360;2023-06-24T14:19:38;10.05;;;7.25;;
3095;SDS011;1558;42.700;23.360;2023-06-24T14:22:07;10.10;;;7.90;;
3095;SDS011;1558;42.700;23.360;2023-06-24T14:24:35;10.43;;;7.28;;
3095;SDS011;1558;42.700;23.360;2023-06-24T14:27:05;9.68;;;6.85;;
3095;SDS011;1558;42.700;23.360;2023-06-24T14:29:36;10.50;;;7.07;;
3095;SDS011;1558;42.700;23.360;2023-06-24T14:32:05;14.43;;;7.28;;
3095;SDS011;1558;42.700;23.360;2023-06-24T14:34:33;10.55;;;7.10;;
3095;SDS011;1558;42.700;23.360;2023-06-24T14:37:01;10.23;;;7.75;;
3095;SDS011;1558;42.700;23.360;2023-06-24T14:39:29;13.48;;;7.28;;
3095;SDS011;1558;42.700;23.360;2023-06-24T14:41:57;9.40;;;7.05;;
3095;SDS011;1558;42.700;23.360;2023-06-24T14:44:26;10.88;;;6.80;;
3095;SDS011;1558;42.700;23.360;2023-06-24T14:46:55;11.95;;;6.70;;
3095;SDS011;1558;42.700;23.360;2023-06-24T14:49:24;8.80;;;6.95;;
3095;SDS011;1558;42.700;23.360;2023-06-24T14:51:52;10.45;;;7.55;;
3095;SDS011;1558;42.700;23.360;2023-06-24T14:54:20;14.07;;;7.85;;
3095;SDS011;1558;42.700;23.360;2023-06-24T14:56:48;10.70;;;6.78;;
3095;SDS011;1558;42.700;23.360;2023-06-24T14:59:16;10.63;;;7.05;;